createdAt,value
2024-05-09T00:01:22.226Z,22.83
2024-05-09T00:04:27.490Z,22.50
2024-05-09T00:07:33.070Z,23.98
2024-05-09T00:10:41.769Z,24.70
2024-05-09T00:13:47.340Z,24.38
2024-05-09T00:16:52.935Z,24.85
2024-05-09T00:19:58.529Z,23.23
2024-05-09T00:23:04.343Z,22.98
2024-05-09T00:26:12.212Z,24.23
2024-05-09T00:29:17.840Z,24.27
2024-05-09T00:32:23.679Z,26.48
2024-05-09T00:35:29.213Z,26.10
2024-05-09T00:38:34.741Z,26.88
2024-05-09T00:41:43.064Z,27.63
2024-05-09T00:44:48.581Z,27.08
2024-05-09T00:47:53.938Z,26.55
2024-05-09T00:51:00.615Z,25.83
2024-05-09T00:54:06.408Z,27.33
2024-05-09T00:57:14.662Z,26.35
2024-05-09T01:00:27.241Z,27.98
2024-05-09T01:03:41.698Z,27.95
2024-05-09T01:06:47.436Z,28.50
2024-05-09T01:09:53.106Z,26.77
2024-05-09T01:13:01.314Z,30.25
2024-05-09T01:16:07.411Z,30.35
2024-05-09T01:19:21.568Z,29.42
2024-05-09T01:22:29.199Z,27.17
2024-05-09T01:25:38.052Z,29.30
2024-05-09T01:28:44.349Z,30.30
2024-05-09T01:34:58.078Z,27.70
2024-05-09T01:38:03.837Z,30.25
2024-05-09T01:41:12.150Z,29.70
2024-05-09T01:44:18.141Z,30.02
2024-05-09T01:47:23.879Z,32.25
2024-05-09T01:50:37.890Z,27.90
2024-05-09T01:53:46.769Z,29.20
2024-05-09T01:56:55.050Z,29.60
2024-05-09T02:00:00.625Z,31.38
2024-05-09T02:03:06.589Z,28.17
2024-05-09T02:06:12.225Z,28.70
2024-05-09T02:09:18.537Z,37.35
2024-05-09T02:12:26.832Z,30.30
2024-05-09T02:15:32.461Z,28.75
2024-05-09T02:18:37.991Z,34.65
2024-05-09T02:21:43.477Z,33.05
2024-05-09T02:24:48.951Z,31.15
2024-05-09T02:27:57.136Z,31.33
2024-05-09T02:31:02.636Z,29.58
2024-05-09T02:34:08.440Z,33.63
2024-05-09T02:37:13.900Z,29.80
2024-05-09T02:40:25.183Z,32.65
2024-05-09T02:43:37.250Z,33.72
2024-05-09T02:46:42.957Z,31.25
2024-05-09T02:49:45.919Z,31.33
2024-05-09T02:52:51.709Z,31.20
2024-05-09T02:55:54.605Z,32.78
2024-05-09T02:59:02.457Z,32.45
2024-05-09T03:02:05.176Z,32.90
2024-05-09T03:05:10.382Z,29.70
2024-05-09T03:08:15.964Z,32.35
2024-05-09T03:11:22.855Z,31.30
2024-05-09T03:14:31.517Z,29.75
2024-05-09T03:17:34.493Z,32.25
2024-05-09T03:20:40.564Z,39.55
2024-05-09T03:23:46.769Z,31.15
2024-05-09T03:26:49.770Z,32.03
2024-05-09T03:29:57.875Z,31.67
2024-05-09T03:34:20.731Z,31.42
2024-05-09T03:37:26.292Z,28.60
2024-05-09T03:40:31.579Z,30.42
2024-05-09T03:43:37.152Z,32.17
2024-05-09T03:46:40.283Z,31.67
2024-05-09T03:49:48.584Z,32.33
2024-05-09T03:52:54.159Z,31.55
2024-05-09T03:55:57.376Z,32.78
2024-05-09T03:59:05.293Z,31.73
2024-05-09T04:02:10.750Z,39.22
2024-05-09T04:05:19.174Z,28.80
2024-05-09T04:08:22.370Z,27.23
2024-05-09T04:11:28.326Z,32.28
2024-05-09T04:14:31.008Z,34.13
2024-05-09T04:17:36.410Z,29.75
2024-05-09T04:20:42.286Z,27.13
2024-05-09T04:23:47.512Z,30.58
2024-05-09T04:26:53.095Z,26.13
2024-05-09T04:29:56.042Z,31.90
2024-05-09T04:33:01.670Z,29.05
2024-05-09T04:36:07.979Z,31.02
2024-05-09T04:39:13.524Z,31.00
2024-05-09T04:42:16.436Z,31.20
2024-05-09T04:45:21.915Z,35.13
2024-05-09T04:48:27.713Z,30.98
2024-05-09T04:51:33.284Z,32.40
2024-05-09T04:54:38.719Z,31.02
2024-05-09T04:57:41.640Z,31.77
2024-05-09T05:00:47.030Z,31.08
2024-05-09T05:03:50.146Z,31.33
2024-05-09T05:07:02.121Z,30.27
2024-05-09T05:10:09.326Z,31.10
2024-05-09T05:13:24.692Z,32.47
2024-05-09T05:16:30.737Z,28.77
2024-05-09T05:19:34.074Z,28.23
2024-05-09T05:22:43.551Z,29.02
2024-05-09T05:25:48.426Z,31.80
2024-05-09T05:28:54.623Z,29.27
2024-05-09T05:31:57.892Z,29.15
2024-05-09T05:35:03.584Z,28.27
2024-05-09T05:38:12.499Z,29.98
2024-05-09T05:41:15.480Z,30.45
2024-05-09T05:44:21.467Z,29.13
2024-05-09T05:47:27.744Z,25.83
2024-05-09T05:50:36.432Z,24.27
2024-05-09T05:53:44.701Z,26.98
2024-05-09T05:56:50.239Z,26.05
2024-05-09T05:59:53.867Z,19.67
2024-05-09T06:02:59.490Z,22.92
2024-05-09T06:06:05.598Z,23.42
2024-05-09T06:09:15.361Z,23.83
2024-05-09T06:12:18.814Z,23.00
2024-05-09T06:15:24.489Z,22.38
2024-05-09T06:18:27.634Z,20.50
2024-05-09T06:21:35.286Z,20.73
2024-05-09T06:24:43.509Z,18.35
2024-05-09T06:27:49.539Z,18.05
2024-05-09T06:30:52.497Z,17.48
2024-05-09T06:33:58.223Z,16.85
2024-05-09T06:37:01.340Z,16.92
2024-05-09T06:40:12.512Z,15.05
2024-05-09T06:43:19.286Z,13.55
2024-05-09T06:46:25.935Z,12.10
2024-05-09T06:49:30.139Z,13.23
2024-05-09T06:52:36.047Z,12.13
2024-05-09T06:55:45.262Z,11.88
2024-05-09T06:58:51.069Z,11.23
2024-05-09T07:01:58.269Z,11.80
2024-05-09T07:05:01.534Z,10.63
2024-05-09T07:08:09.890Z,10.57
2024-05-09T07:11:18.255Z,11.30
2024-05-09T07:14:21.216Z,11.05
2024-05-09T07:17:27.128Z,10.10
2024-05-09T07:20:34.572Z,9.65
2024-05-09T07:23:45.146Z,13.43
2024-05-09T07:26:52.752Z,10.82
2024-05-09T10:27:46.579Z,3.50
2024-05-09T10:31:00.802Z,3.67
2024-05-09T10:34:10.506Z,5.07
2024-05-09T10:37:14.273Z,3.60
2024-05-09T10:40:26.415Z,3.47
2024-05-09T10:43:39.247Z,4.43
2024-05-09T10:46:45.132Z,3.20
2024-05-09T10:49:48.764Z,4.47
2024-05-09T10:52:55.589Z,3.63
2024-05-09T10:55:59.970Z,5.07
2024-05-09T10:59:08.575Z,4.57
2024-05-09T11:02:12.408Z,4.20
2024-05-09T11:05:19.033Z,8.20
2024-05-09T11:08:23.276Z,4.90
2024-05-09T11:11:29.222Z,4.97
2024-05-09T11:14:34.872Z,4.32
2024-05-09T11:17:40.859Z,4.30
2024-05-09T11:20:44.073Z,3.35
2024-05-09T11:23:50.528Z,3.40
2024-05-09T11:26:53.624Z,4.80
2024-05-09T11:30:01.905Z,7.70
2024-05-09T11:33:05.714Z,6.88
2024-05-09T11:36:11.332Z,3.03
2024-05-09T11:39:14.778Z,6.55
2024-05-09T11:42:22.153Z,3.05
2024-05-09T11:48:33.466Z,3.70
2024-05-09T11:51:36.546Z,8.55
2024-05-09T11:54:42.074Z,3.10
2024-05-09T11:57:45.373Z,3.85
2024-05-09T12:00:53.635Z,5.32
2024-05-09T12:03:59.499Z,3.22
2024-05-09T12:07:02.616Z,3.17
2024-05-09T12:10:14.130Z,7.78
2024-05-09T12:13:25.059Z,3.60
2024-05-09T12:16:30.559Z,2.88
2024-05-09T12:19:36.469Z,3.60
2024-05-09T12:22:39.511Z,4.97
2024-05-09T12:25:45.030Z,4.22
2024-05-09T12:28:47.965Z,3.03
2024-05-09T12:36:59.058Z,4.97
2024-05-09T12:40:06.710Z,4.82
2024-05-09T12:43:15.198Z,6.38
2024-05-09T12:46:21.301Z,2.75
2024-05-09T12:49:27.033Z,3.00
2024-05-09T12:52:32.727Z,4.60
2024-05-09T12:55:44.502Z,4.13
2024-05-09T12:59:07.424Z,6.38
2024-05-09T13:02:10.496Z,3.10
2024-05-09T13:05:18.776Z,3.70
2024-05-09T13:08:22.009Z,4.15
2024-05-09T13:11:27.647Z,4.40
2024-05-09T13:14:30.799Z,2.85
2024-05-09T13:17:36.160Z,4.35
2024-05-09T13:20:42.534Z,4.13
2024-05-09T13:23:51.422Z,4.22
2024-05-09T13:26:57.574Z,7.15
2024-05-09T13:30:07.786Z,6.53
2024-05-09T13:33:16.851Z,7.47
2024-05-09T13:36:29.585Z,2.80
2024-05-09T13:39:46.646Z,4.22
2024-05-09T13:42:55.163Z,3.20
2024-05-09T13:46:13.014Z,3.83
2024-05-09T13:50:08.984Z,2.53
2024-05-09T14:02:55.658Z,4.55
2024-05-09T14:11:05.962Z,2.90
2024-05-09T14:14:18.473Z,3.33
2024-05-09T14:17:21.706Z,4.00
2024-05-09T14:20:32.059Z,2.78
2024-05-09T14:23:38.175Z,4.70
2024-05-09T14:26:43.672Z,7.15
2024-05-09T14:29:46.561Z,4.57
2024-05-09T14:32:52.155Z,5.07
2024-05-09T14:35:58.006Z,4.20
2024-05-09T14:39:03.810Z,4.15
2024-05-09T14:42:06.877Z,3.92
2024-05-09T14:45:12.326Z,3.78
2024-05-09T14:48:19.926Z,4.43
2024-05-09T14:51:28.375Z,2.70
2024-05-09T14:54:32.042Z,3.15
2024-05-09T14:57:37.854Z,3.53
2024-05-09T15:00:46.495Z,8.55
2024-05-09T15:03:57.242Z,3.45
2024-05-09T15:07:03.248Z,2.92
2024-05-09T15:10:16.519Z,3.30
2024-05-09T15:13:32.474Z,3.47
2024-05-09T15:16:38.156Z,8.02
2024-05-09T15:19:41.470Z,3.58
2024-05-09T15:22:49.448Z,5.35
2024-05-09T15:25:52.008Z,2.63
2024-05-09T15:28:57.559Z,6.65
2024-05-09T15:34:26.968Z,3.58
2024-05-09T15:37:32.724Z,6.03
2024-05-09T15:40:39.868Z,3.53
2024-05-09T15:43:46.839Z,4.47
2024-05-09T15:46:50.022Z,3.95
2024-05-09T15:49:58.687Z,3.90
2024-05-09T15:53:04.695Z,6.85
2024-05-09T15:56:53.582Z,4.45
2024-05-09T16:00:00.064Z,5.50
2024-05-09T16:03:08.893Z,4.72
2024-05-09T16:06:23.583Z,8.02
2024-05-09T16:09:29.503Z,3.95
2024-05-09T16:12:35.122Z,4.38
2024-05-09T16:15:38.137Z,2.70
2024-05-09T16:18:44.747Z,9.80
2024-05-09T16:21:50.462Z,5.30
2024-05-09T16:24:56.291Z,6.97
2024-05-09T16:27:59.673Z,2.67
2024-05-09T16:31:05.383Z,4.95
2024-05-09T16:34:11.091Z,2.53
2024-05-09T16:37:17.026Z,2.80
2024-05-09T16:40:30.280Z,4.90
2024-05-09T16:43:42.963Z,12.10
2024-05-09T16:46:46.510Z,2.97
2024-05-09T16:49:52.451Z,6.70
2024-05-09T16:53:56.204Z,4.55
2024-05-09T16:57:09.629Z,5.45
2024-05-09T17:00:22.686Z,8.90
2024-05-09T17:03:36.944Z,4.70
2024-05-09T17:06:39.808Z,5.93
2024-05-09T17:09:45.581Z,2.70
2024-05-09T17:12:53.833Z,5.18
2024-05-09T17:15:59.203Z,3.55
2024-05-09T17:19:05.047Z,2.70
2024-05-09T17:22:13.988Z,3.55
2024-05-09T17:25:17.258Z,4.18
2024-05-09T17:28:25.969Z,4.57
2024-05-09T17:31:29.114Z,4.72
2024-05-09T17:34:35.187Z,3.80
2024-05-09T17:37:40.814Z,3.08
2024-05-09T17:40:43.814Z,3.08
2024-05-09T17:43:52.086Z,3.92
2024-05-09T17:46:55.139Z,3.13
2024-05-09T17:50:00.920Z,5.97
2024-05-09T17:53:04.559Z,6.10
2024-05-09T17:56:10.830Z,5.53
2024-05-09T17:59:16.449Z,6.88
2024-05-09T18:02:22.303Z,4.93
2024-05-09T18:05:25.422Z,5.95
2024-05-09T18:08:34.038Z,4.57
2024-05-09T18:11:40.739Z,6.85
2024-05-09T18:14:49.078Z,5.22
2024-05-09T18:17:55.001Z,4.40
2024-05-09T18:21:00.736Z,5.25
2024-05-09T18:24:03.994Z,3.83
2024-05-09T18:27:09.512Z,5.80
2024-05-09T18:30:24.087Z,4.03
2024-05-09T18:33:37.332Z,3.88
2024-05-09T18:36:40.528Z,3.58
2024-05-09T18:39:46.826Z,3.55
2024-05-09T18:42:49.505Z,3.30
2024-05-09T18:45:58.761Z,6.15
2024-05-09T18:49:30.307Z,5.68
2024-05-09T18:52:59.843Z,6.60
2024-05-09T18:56:06.592Z,6.07
2024-05-09T18:59:09.642Z,4.78
2024-05-09T19:02:18.215Z,5.70
2024-05-09T19:05:21.520Z,5.45
2024-05-09T19:08:28.443Z,6.03
2024-05-09T19:11:31.453Z,4.45
2024-05-09T19:14:37.065Z,4.60
2024-05-09T19:17:42.920Z,4.20
2024-05-09T19:20:49.323Z,4.25
2024-05-09T19:23:52.691Z,4.03
2024-05-09T19:26:58.579Z,4.43
2024-05-09T19:35:00.295Z,6.38
2024-05-09T19:38:03.864Z,6.43
2024-05-09T19:41:09.545Z,5.38
2024-05-09T19:44:12.671Z,9.50
2024-05-09T19:47:18.554Z,4.68
2024-05-09T19:50:32.153Z,5.85
2024-05-09T19:53:45.669Z,4.30
2024-05-09T19:56:51.315Z,4.47
2024-05-09T19:59:54.732Z,7.15
2024-05-09T20:03:00.515Z,5.35
2024-05-09T20:06:06.574Z,6.78
2024-05-09T20:09:12.303Z,5.57
2024-05-09T20:12:15.241Z,5.65
2024-05-09T20:15:20.891Z,5.78
2024-05-09T20:18:24.066Z,5.22
2024-05-09T20:21:32.620Z,6.78
2024-05-09T20:24:35.595Z,5.90
2024-05-09T20:27:41.262Z,5.55
2024-05-09T20:30:46.876Z,5.50
2024-05-09T20:33:50.376Z,7.10
2024-05-09T20:36:58.832Z,9.57
2024-05-09T20:40:09.798Z,7.80
2024-05-09T20:43:15.142Z,8.07
2024-05-09T20:46:20.931Z,9.55
2024-05-09T20:49:26.734Z,9.38
2024-05-09T20:52:32.005Z,9.77
2024-05-09T20:55:37.726Z,10.82
2024-05-09T20:58:43.213Z,9.60
2024-05-09T21:01:49.206Z,8.30
2024-05-09T21:04:55.338Z,10.40
2024-05-09T21:08:01.576Z,9.85
2024-05-09T21:11:07.489Z,10.38
2024-05-09T21:14:10.388Z,11.10
2024-05-09T21:17:15.749Z,12.85
2024-05-09T21:20:24.247Z,12.43
2024-05-09T21:23:39.370Z,13.82
2024-05-09T21:26:44.945Z,13.95
2024-05-09T21:29:47.986Z,14.70
2024-05-09T21:34:26.440Z,15.88
2024-05-09T21:37:29.578Z,15.35
2024-05-09T21:40:36.771Z,16.52
2024-05-09T21:43:40.445Z,16.90
2024-05-09T21:46:45.990Z,16.88
2024-05-09T21:49:51.746Z,17.05
2024-05-09T21:52:57.260Z,17.10
2024-05-09T21:56:00.230Z,18.02
2024-05-09T21:59:05.799Z,18.95
2024-05-09T22:02:08.849Z,19.05
2024-05-09T22:05:17.685Z,19.60
2024-05-09T22:08:22.971Z,19.60
2024-05-09T22:11:25.982Z,20.00
2024-05-09T22:14:31.488Z,17.67
2024-05-09T22:17:34.077Z,19.67
2024-05-09T22:20:45.652Z,18.90
2024-05-09T22:23:49.070Z,18.92
2024-05-09T22:26:55.485Z,18.83
2024-05-09T22:30:11.787Z,18.52
2024-05-09T22:33:20.281Z,19.10
2024-05-09T22:36:26.044Z,18.48
2024-05-09T22:39:31.252Z,18.92
2024-05-09T22:42:34.322Z,18.90
2024-05-09T22:45:39.573Z,19.75
2024-05-09T22:48:42.970Z,22.00
2024-05-09T22:51:51.351Z,20.15
2024-05-09T22:54:54.327Z,21.02
2024-05-09T22:58:00.114Z,19.90
2024-05-09T23:01:06.311Z,19.60
2024-05-09T23:04:09.047Z,20.10
2024-05-09T23:07:17.355Z,20.30
2024-05-09T23:10:27.751Z,19.33
2024-05-09T23:13:38.202Z,19.60
2024-05-09T23:16:44.922Z,19.58
2024-05-09T23:19:48.183Z,19.70
2024-05-09T23:22:56.360Z,19.90
2024-05-09T23:26:01.861Z,20.17
2024-05-09T23:29:05.208Z,20.45
2024-05-09T23:32:20.393Z,19.48
2024-05-09T23:35:23.468Z,19.58
2024-05-09T23:38:31.624Z,20.23
2024-05-09T23:41:34.515Z,19.60
2024-05-09T23:44:39.998Z,19.55
2024-05-09T23:47:43.603Z,19.00
2024-05-09T23:50:49.477Z,20.55
2024-05-09T23:53:54.980Z,19.20
2024-05-09T23:57:00.567Z,19.77
